sensor_id;sensor_type;location;lat;lon;timestamp;temperature;humidity
10133;DHT22;5106;50.926;7.080;2023-04-24T00:02:03;11.70;78.60
10133;DHT22;5106;50.926;7.080;2023-04-24T00:04:29;11.70;78.80
10133;DHT22;5106;50.926;7.080;2023-04-24T00:06:55;11.70;78.90
10133;DHT22;5106;50.926;7.080;2023-04-24T00:09:22;11.60;78.70
10133;DHT22;5106;50.926;7.080;2023-04-24T00:11:48;11.60;79.00
10133;DHT22;5106;50.926;7.080;2023-04-24T00:14:14;11.60;79.10
10133;DHT22;5106;50.926;7.080;2023-04-24T00:16:39;11.60;79.20
10133;DHT22;5106;50.926;7.080;2023-04-24T00:19:05;11.50;79.30
10133;DHT22;5106;50.926;7.080;2023-04-24T00:21:32;11.50;79.50
10133;DHT22;5106;50.926;7.080;2023-04-24T00:24:01;11.50;79.60
10133;DHT22;5106;50.926;7.080;2023-04-24T00:26:26;11.50;79.70
10133;DHT22;5106;50.926;7.080;2023-04-24T00:28:52;11.50;79.30
10133;DHT22;5106;50.926;7.080;2023-04-24T00:31:18;11.50;79.40
10133;DHT22;5106;50.926;7.080;2023-04-24T00:33:44;11.50;79.70
10133;DHT22;5106;50.926;7.080;2023-04-24T00:36:10;11.50;79.80
10133;DHT22;5106;50.926;7.080;2023-04-24T00:38:35;11.50;80.00
10133;DHT22;5106;50.926;7.080;2023-04-24T00:41:01;11.40;79.90
10133;DHT22;5106;50.926;7.080;2023-04-24T00:43:26;11.40;80.10
10133;DHT22;5106;50.926;7.080;2023-04-24T00:45:52;11.40;80.20
10133;DHT22;5106;50.926;7.080;2023-04-24T00:48:18;11.40;80.30
10133;DHT22;5106;50.926;7.080;2023-04-24T00:50:44;11.30;80.40
10133;DHT22;5106;50.926;7.080;2023-04-24T00:53:10;11.30;80.30
10133;DHT22;5106;50.926;7.080;2023-04-24T00:55:36;11.30;80.40
10133;DHT22;5106;50.926;7.080;2023-04-24T00:58:02;11.30;80.50
10133;DHT22;5106;50.926;7.080;2023-04-24T01:00:28;11.30;80.70
10133;DHT22;5106;50.926;7.080;2023-04-24T01:02:55;11.30;80.80
10133;DHT22;5106;50.926;7.080;2023-04-24T01:05:21;11.40;80.40
10133;DHT22;5106;50.926;7.080;2023-04-24T01:07:47;11.40;79.60
10133;DHT22;5106;50.926;7.080;2023-04-24T01:10:15;11.40;79.50
10133;DHT22;5106;50.926;7.080;2023-04-24T01:12:41;11.40;79.50
10133;DHT22;5106;50.926;7.080;2023-04-24T01:15:07;11.50;79.00
10133;DHT22;5106;50.926;7.080;2023-04-24T01:17:33;11.50;78.40
10133;DHT22;5106;50.926;7.080;2023-04-24T01:19:59;11.50;78.20
10133;DHT22;5106;50.926;7.080;2023-04-24T01:22:26;11.60;77.80
10133;DHT22;5106;50.926;7.080;2023-04-24T01:24:53;11.60;77.50
10133;DHT22;5106;50.926;7.080;2023-04-24T01:27:19;11.60;78.10
10133;DHT22;5106;50.926;7.080;2023-04-24T01:29:45;11.50;77.20
10133;DHT22;5106;50.926;7.080;2023-04-24T01:32:13;11.50;77.40
10133;DHT22;5106;50.926;7.080;2023-04-24T01:34:38;11.50;77.30
10133;DHT22;5106;50.926;7.080;2023-04-24T01:37:05;11.40;77.30
10133;DHT22;5106;50.926;7.080;2023-04-24T01:39:31;11.40;77.60
10133;DHT22;5106;50.926;7.080;2023-04-24T01:41:57;11.40;77.60
10133;DHT22;5106;50.926;7.080;2023-04-24T01:44:23;11.40;78.10
10133;DHT22;5106;50.926;7.080;2023-04-24T01:46:49;11.40;77.40
10133;DHT22;5106;50.926;7.080;2023-04-24T01:49:18;11.30;77.50
10133;DHT22;5106;50.926;7.080;2023-04-24T01:51:53;11.30;77.40
10133;DHT22;5106;50.926;7.080;2023-04-24T01:54:18;11.30;76.70
10133;DHT22;5106;50.926;7.080;2023-04-24T01:56:45;11.30;76.00
10133;DHT22;5106;50.926;7.080;2023-04-24T01:59:14;11.30;75.80
10133;DHT22;5106;50.926;7.080;2023-04-24T02:01:40;11.30;74.90
10133;DHT22;5106;50.926;7.080;2023-04-24T02:04:07;11.20;74.20
10133;DHT22;5106;50.926;7.080;2023-04-24T02:06:32;11.20;74.40
10133;DHT22;5106;50.926;7.080;2023-04-24T02:08:58;11.20;74.80
10133;DHT22;5106;50.926;7.080;2023-04-24T02:11:24;11.20;74.40
10133;DHT22;5106;50.926;7.080;2023-04-24T02:13:50;11.10;74.60
10133;DHT22;5106;50.926;7.080;2023-04-24T02:16:17;11.10;74.60
10133;DHT22;5106;50.926;7.080;2023-04-24T02:18:43;11.00;74.70
10133;DHT22;5106;50.926;7.080;2023-04-24T02:21:09;11.00;74.60
10133;DHT22;5106;50.926;7.080;2023-04-24T02:23:34;10.80;75.10
10133;DHT22;5106;50.926;7.080;2023-04-24T02:26:00;10.80;75.30
10133;DHT22;5106;50.926;7.080;2023-04-24T02:28:25;10.70;75.20
10133;DHT22;5106;50.926;7.080;2023-04-24T02:30:51;10.60;75.70
10133;DHT22;5106;50.926;7.080;2023-04-24T02:33:17;10.50;75.30
10133;DHT22;5106;50.926;7.080;2023-04-24T02:35:42;10.40;75.40
10133;DHT22;5106;50.926;7.080;2023-04-24T02:38:08;10.30;75.90
10133;DHT22;5106;50.926;7.080;2023-04-24T02:40:33;10.30;76.00
10133;DHT22;5106;50.926;7.080;2023-04-24T02:42:59;10.20;76.40
10133;DHT22;5106;50.926;7.080;2023-04-24T02:45:25;10.10;76.80
10133;DHT22;5106;50.926;7.080;2023-04-24T02:47:50;10.00;76.40
10133;DHT22;5106;50.926;7.080;2023-04-24T02:50:16;10.00;76.30
10133;DHT22;5106;50.926;7.080;2023-04-24T02:52:41;9.90;76.60
10133;DHT22;5106;50.926;7.080;2023-04-24T02:55:07;9.90;76.90
10133;DHT22;5106;50.926;7.080;2023-04-24T02:57:33;9.90;77.00
10133;DHT22;5106;50.926;7.080;2023-04-24T02:59:59;9.90;77.00
10133;DHT22;5106;50.926;7.080;2023-04-24T03:02:25;9.90;76.70
10133;DHT22;5106;50.926;7.080;2023-04-24T03:04:51;9.80;76.60
10133;DHT22;5106;50.926;7.080;2023-04-24T03:07:16;9.80;76.90
10133;DHT22;5106;50.926;7.080;2023-04-24T03:09:42;9.90;77.00
10133;DHT22;5106;50.926;7.080;2023-04-24T03:12:08;9.90;77.40
10133;DHT22;5106;50.926;7.080;2023-04-24T03:14:33;9.80;76.80
10133;DHT22;5106;50.926;7.080;2023-04-24T03:17:00;9.90;77.30
10133;DHT22;5106;50.926;7.080;2023-04-24T03:19:26;9.90;77.10
10133;DHT22;5106;50.926;7.080;2023-04-24T03:21:51;9.90;76.90
10133;DHT22;5106;50.926;7.080;2023-04-24T03:24:17;9.90;77.40
10133;DHT22;5106;50.926;7.080;2023-04-24T03:26:43;9.80;76.00
10133;DHT22;5106;50.926;7.080;2023-04-24T03:29:08;9.80;76.10
10133;DHT22;5106;50.926;7.080;2023-04-24T03:31:34;9.80;75.90
10133;DHT22;5106;50.926;7.080;2023-04-24T03:34:00;9.80;76.00
10133;DHT22;5106;50.926;7.080;2023-04-24T03:36:25;9.80;76.10
10133;DHT22;5106;50.926;7.080;2023-04-24T03:38:51;9.70;76.10
10133;DHT22;5106;50.926;7.080;2023-04-24T03:41:17;9.70;76.20
10133;DHT22;5106;50.926;7.080;2023-04-24T03:43:43;9.70;76.70
10133;DHT22;5106;50.926;7.080;2023-04-24T03:46:08;9.70;76.30
10133;DHT22;5106;50.926;7.080;2023-04-24T03:48:35;9.60;77.10
10133;DHT22;5106;50.926;7.080;2023-04-24T03:51:00;9.60;76.00
10133;DHT22;5106;50.926;7.080;2023-04-24T03:53:26;9.60;76.30
10133;DHT22;5106;50.926;7.080;2023-04-24T03:55:52;9.50;76.60
10133;DHT22;5106;50.926;7.080;2023-04-24T03:58:18;9.50;76.80
10133;DHT22;5106;50.926;7.080;2023-04-24T04:00:44;9.50;77.00
10133;DHT22;5106;50.926;7.080;2023-04-24T04:03:09;9.50;76.90
10133;DHT22;5106;50.926;7.080;2023-04-24T04:05:35;9.50;77.50
10133;DHT22;5106;50.926;7.080;2023-04-24T04:08:01;9.50;77.40
10133;DHT22;5106;50.926;7.080;2023-04-24T04:10:27;9.60;77.80
10133;DHT22;5106;50.926;7.080;2023-04-24T04:12:52;9.60;78.10
10133;DHT22;5106;50.926;7.080;2023-04-24T04:15:18;9.60;78.30
10133;DHT22;5106;50.926;7.080;2023-04-24T04:17:44;9.60;78.40
10133;DHT22;5106;50.926;7.080;2023-04-24T04:20:11;9.70;78.30
10133;DHT22;5106;50.926;7.080;2023-04-24T04:22:37;9.70;77.80
10133;DHT22;5106;50.926;7.080;2023-04-24T04:25:03;9.70;77.80
10133;DHT22;5106;50.926;7.080;2023-04-24T04:27:30;9.80;77.70
10133;DHT22;5106;50.926;7.080;2023-04-24T04:30:01;9.80;77.80
10133;DHT22;5106;50.926;7.080;2023-04-24T04:32:33;9.80;77.90
10133;DHT22;5106;50.926;7.080;2023-04-24T04:34:59;9.80;77.50
10133;DHT22;5106;50.926;7.080;2023-04-24T04:37:29;9.80;77.50
10133;DHT22;5106;50.926;7.080;2023-04-24T04:39:54;9.80;77.60
10133;DHT22;5106;50.926;7.080;2023-04-24T04:42:20;9.80;77.90
10133;DHT22;5106;50.926;7.080;2023-04-24T04:44:46;9.80;77.90
10133;DHT22;5106;50.926;7.080;2023-04-24T04:47:12;9.80;78.10
10133;DHT22;5106;50.926;7.080;2023-04-24T04:49:38;9.80;78.10
10133;DHT22;5106;50.926;7.080;2023-04-24T04:52:04;9.80;77.90
10133;DHT22;5106;50.926;7.080;2023-04-24T04:54:30;9.80;77.90
10133;DHT22;5106;50.926;7.080;2023-04-24T04:56:56;9.80;78.20
10133;DHT22;5106;50.926;7.080;2023-04-24T04:59:23;9.90;78.30
10133;DHT22;5106;50.926;7.080;2023-04-24T05:01:48;9.90;78.00
10133;DHT22;5106;50.926;7.080;2023-04-24T05:04:15;9.80;78.10
10133;DHT22;5106;50.926;7.080;2023-04-24T05:06:40;9.90;78.20
10133;DHT22;5106;50.926;7.080;2023-04-24T05:09:06;9.90;78.10
10133;DHT22;5106;50.926;7.080;2023-04-24T05:11:32;9.80;78.00
10133;DHT22;5106;50.926;7.080;2023-04-24T05:13:58;9.80;78.00
10133;DHT22;5106;50.926;7.080;2023-04-24T05:16:24;9.90;77.70
10133;DHT22;5106;50.926;7.080;2023-04-24T05:18:49;9.90;78.00
10133;DHT22;5106;50.926;7.080;2023-04-24T05:21:15;9.90;78.30
10133;DHT22;5106;50.926;7.080;2023-04-24T05:23:40;9.90;78.30
10133;DHT22;5106;50.926;7.080;2023-04-24T05:26:06;9.90;78.40
10133;DHT22;5106;50.926;7.080;2023-04-24T05:28:32;9.80;78.40
10133;DHT22;5106;50.926;7.080;2023-04-24T05:30:57;9.90;78.20
10133;DHT22;5106;50.926;7.080;2023-04-24T05:33:24;9.90;78.00
10133;DHT22;5106;50.926;7.080;2023-04-24T05:35:50;9.90;77.90
10133;DHT22;5106;50.926;7.080;2023-04-24T05:38:16;9.90;77.80
10133;DHT22;5106;50.926;7.080;2023-04-24T05:40:45;9.90;77.90
10133;DHT22;5106;50.926;7.080;2023-04-24T05:43:12;9.90;78.10
10133;DHT22;5106;50.926;7.080;2023-04-24T05:45:38;9.90;78.30
10133;DHT22;5106;50.926;7.080;2023-04-24T05:48:04;9.80;78.40
10133;DHT22;5106;50.926;7.080;2023-04-24T05:50:29;9.90;78.10
10133;DHT22;5106;50.926;7.080;2023-04-24T05:52:55;9.80;78.30
10133;DHT22;5106;50.926;7.080;2023-04-24T05:55:24;9.80;78.50
10133;DHT22;5106;50.926;7.080;2023-04-24T05:57:49;9.80;78.40
10133;DHT22;5106;50.926;7.080;2023-04-24T06:00:15;9.80;78.60
10133;DHT22;5106;50.926;7.080;2023-04-24T06:02:41;9.80;78.40
10133;DHT22;5106;50.926;7.080;2023-04-24T06:05:07;9.80;78.60
10133;DHT22;5106;50.926;7.080;2023-04-24T06:07:33;9.70;78.70
10133;DHT22;5106;50.926;7.080;2023-04-24T06:09:59;9.70;78.90
10133;DHT22;5106;50.926;7.080;2023-04-24T06:12:25;9.70;78.70
10133;DHT22;5106;50.926;7.080;2023-04-24T06:14:51;9.70;78.90
10133;DHT22;5106;50.926;7.080;2023-04-24T06:17:16;9.70;79.10
10133;DHT22;5106;50.926;7.080;2023-04-24T06:19:42;9.70;79.20
10133;DHT22;5106;50.926;7.080;2023-04-24T06:22:08;9.70;79.50
10133;DHT22;5106;50.926;7.080;2023-04-24T06:24:34;9.60;79.30
10133;DHT22;5106;50.926;7.080;2023-04-24T06:27:00;9.60;79.70
10133;DHT22;5106;50.926;7.080;2023-04-24T06:29:26;9.60;79.90
10133;DHT22;5106;50.926;7.080;2023-04-24T06:31:52;9.60;80.30
10133;DHT22;5106;50.926;7.080;2023-04-24T06:34:18;9.50;80.40
10133;DHT22;5106;50.926;7.080;2023-04-24T06:36:43;9.50;79.80
10133;DHT22;5106;50.926;7.080;2023-04-24T06:39:09;9.40;80.30
10133;DHT22;5106;50.926;7.080;2023-04-24T06:41:35;9.30;80.70
10133;DHT22;5106;50.926;7.080;2023-04-24T06:44:01;9.30;81.20
10133;DHT22;5106;50.926;7.080;2023-04-24T06:46:26;9.20;81.60
10133;DHT22;5106;50.926;7.080;2023-04-24T06:48:53;9.20;81.90
10133;DHT22;5106;50.926;7.080;2023-04-24T06:51:26;9.20;81.90
10133;DHT22;5106;50.926;7.080;2023-04-24T06:53:53;9.10;81.70
10133;DHT22;5106;50.926;7.080;2023-04-24T06:56:19;8.90;81.90
10133;DHT22;5106;50.926;7.080;2023-04-24T06:58:45;8.80;81.70
10133;DHT22;5106;50.926;7.080;2023-04-24T07:01:11;8.70;82.40
10133;DHT22;5106;50.926;7.080;2023-04-24T07:03:37;8.70;82.60
10133;DHT22;5106;50.926;7.080;2023-04-24T07:06:03;8.60;82.80
10133;DHT22;5106;50.926;7.080;2023-04-24T07:08:29;8.60;83.20
10133;DHT22;5106;50.926;7.080;2023-04-24T07:11:02;8.60;83.40
10133;DHT22;5106;50.926;7.080;2023-04-24T07:13:27;8.60;83.20
10133;DHT22;5106;50.926;7.080;2023-04-24T07:15:55;8.50;83.40
10133;DHT22;5106;50.926;7.080;2023-04-24T07:18:21;8.50;83.60
10133;DHT22;5106;50.926;7.080;2023-04-24T07:20:47;8.60;83.90
10133;DHT22;5106;50.926;7.080;2023-04-24T07:23:15;8.50;83.80
10133;DHT22;5106;50.926;7.080;2023-04-24T07:25:41;8.50;83.70
10133;DHT22;5106;50.926;7.080;2023-04-24T07:28:06;8.50;83.60
10133;DHT22;5106;50.926;7.080;2023-04-24T07:30:32;8.40;83.60
10133;DHT22;5106;50.926;7.080;2023-04-24T07:32:58;8.40;83.80
10133;DHT22;5106;50.926;7.080;2023-04-24T07:35:25;8.40;83.90
10133;DHT22;5106;50.926;7.080;2023-04-24T07:37:52;8.40;84.00
10133;DHT22;5106;50.926;7.080;2023-04-24T07:40:18;8.40;84.10
10133;DHT22;5106;50.926;7.080;2023-04-24T07:42:44;8.40;84.20
10133;DHT22;5106;50.926;7.080;2023-04-24T07:45:10;8.40;84.10
10133;DHT22;5106;50.926;7.080;2023-04-24T07:47:35;8.30;84.10
10133;DHT22;5106;50.926;7.080;2023-04-24T07:50:02;8.30;84.10
10133;DHT22;5106;50.926;7.080;2023-04-24T07:52:28;8.20;83.90
10133;DHT22;5106;50.926;7.080;2023-04-24T07:54:54;8.10;84.20
10133;DHT22;5106;50.926;7.080;2023-04-24T07:57:24;8.00;83.90
10133;DHT22;5106;50.926;7.080;2023-04-24T07:59:50;7.90;83.80
10133;DHT22;5106;50.926;7.080;2023-04-24T08:02:16;7.80;84.00
10133;DHT22;5106;50.926;7.080;2023-04-24T08:04:41;7.80;84.30
10133;DHT22;5106;50.926;7.080;2023-04-24T08:07:07;7.70;84.30
10133;DHT22;5106;50.926;7.080;2023-04-24T08:09:33;7.70;84.50
10133;DHT22;5106;50.926;7.080;2023-04-24T08:11:59;7.60;84.40
10133;DHT22;5106;50.926;7.080;2023-04-24T08:14:25;7.60;84.40
10133;DHT22;5106;50.926;7.080;2023-04-24T08:16:52;7.50;84.30
10133;DHT22;5106;50.926;7.080;2023-04-24T08:19:17;7.40;84.40
10133;DHT22;5106;50.926;7.080;2023-04-24T08:21:43;7.40;84.50
10133;DHT22;5106;50.926;7.080;2023-04-24T08:24:08;7.40;84.70
10133;DHT22;5106;50.926;7.080;2023-04-24T08:26:34;7.40;84.60
10133;DHT22;5106;50.926;7.080;2023-04-24T08:29:00;7.40;84.90
10133;DHT22;5106;50.926;7.080;2023-04-24T08:31:26;7.40;84.90
10133;DHT22;5106;50.926;7.080;2023-04-24T08:33:52;7.30;84.90
10133;DHT22;5106;50.926;7.080;2023-04-24T08:36:17;7.30;85.10
10133;DHT22;5106;50.926;7.080;2023-04-24T08:38:43;7.20;85.30
10133;DHT22;5106;50.926;7.080;2023-04-24T08:41:09;7.20;85.00
10133;DHT22;5106;50.926;7.080;2023-04-24T08:43:35;7.20;85.10
10133;DHT22;5106;50.926;7.080;2023-04-24T08:46:04;7.10;85.00
10133;DHT22;5106;50.926;7.080;2023-04-24T08:48:30;7.10;85.10
10133;DHT22;5106;50.926;7.080;2023-04-24T08:50:57;7.00;85.00
10133;DHT22;5106;50.926;7.080;2023-04-24T08:53:24;6.90;84.80
10133;DHT22;5106;50.926;7.080;2023-04-24T08:55:51;6.90;84.80
10133;DHT22;5106;50.926;7.080;2023-04-24T08:58:17;6.90;84.90
10133;DHT22;5106;50.926;7.080;2023-04-24T09:00:43;6.80;84.90
10133;DHT22;5106;50.926;7.080;2023-04-24T09:03:13;6.80;84.90
10133;DHT22;5106;50.926;7.080;2023-04-24T09:05:42;6.90;85.00
10133;DHT22;5106;50.926;7.080;2023-04-24T09:08:11;6.90;85.40
10133;DHT22;5106;50.926;7.080;2023-04-24T09:10:39;6.90;85.20
10133;DHT22;5106;50.926;7.080;2023-04-24T09:13:05;6.90;85.30
10133;DHT22;5106;50.926;7.080;2023-04-24T09:15:31;6.90;85.30
10133;DHT22;5106;50.926;7.080;2023-04-24T09:17:57;6.90;85.40
10133;DHT22;5106;50.926;7.080;2023-04-24T09:20:22;7.00;85.30
10133;DHT22;5106;50.926;7.080;2023-04-24T09:22:48;7.00;85.40
10133;DHT22;5106;50.926;7.080;2023-04-24T09:25:18;7.00;85.30
10133;DHT22;5106;50.926;7.080;2023-04-24T09:27:45;7.00;85.30
10133;DHT22;5106;50.926;7.080;2023-04-24T09:30:11;7.00;85.40
10133;DHT22;5106;50.926;7.080;2023-04-24T09:32:37;7.10;85.50
10133;DHT22;5106;50.926;7.080;2023-04-24T09:35:11;7.10;85.60
10133;DHT22;5106;50.926;7.080;2023-04-24T09:37:38;7.10;85.80
10133;DHT22;5106;50.926;7.080;2023-04-24T09:40:14;7.20;85.80
10133;DHT22;5106;50.926;7.080;2023-04-24T09:42:51;7.20;85.80
10133;DHT22;5106;50.926;7.080;2023-04-24T09:45:17;7.20;85.80
10133;DHT22;5106;50.926;7.080;2023-04-24T09:47:43;7.30;85.80
10133;DHT22;5106;50.926;7.080;2023-04-24T09:50:13;7.40;85.90
10133;DHT22;5106;50.926;7.080;2023-04-24T09:52:40;7.40;86.10
10133;DHT22;5106;50.926;7.080;2023-04-24T09:55:20;7.40;86.20
10133;DHT22;5106;50.926;7.080;2023-04-24T09:57:59;7.50;86.20
10133;DHT22;5106;50.926;7.080;2023-04-24T10:00:32;7.50;86.30
10133;DHT22;5106;50.926;7.080;2023-04-24T10:02:59;7.60;86.40
10133;DHT22;5106;50.926;7.080;2023-04-24T10:05:33;7.70;86.60
10133;DHT22;5106;50.926;7.080;2023-04-24T10:10:29;7.80;86.50
10133;DHT22;5106;50.926;7.080;2023-04-24T10:12:55;7.90;86.40
10133;DHT22;5106;50.926;7.080;2023-04-24T10:15:21;7.90;86.20
10133;DHT22;5106;50.926;7.080;2023-04-24T10:17:48;8.00;86.30
10133;DHT22;5106;50.926;7.080;2023-04-24T10:20:19;8.10;86.60
10133;DHT22;5106;50.926;7.080;2023-04-24T10:22:48;8.20;86.50
10133;DHT22;5106;50.926;7.080;2023-04-24T10:25:16;8.20;86.60
10133;DHT22;5106;50.926;7.080;2023-04-24T10:27:43;8.20;86.00
10133;DHT22;5106;50.926;7.080;2023-04-24T10:30:12;8.30;85.70
10133;DHT22;5106;50.926;7.080;2023-04-24T10:32:38;8.30;85.60
10133;DHT22;5106;50.926;7.080;2023-04-24T10:35:04;8.30;85.40
10133;DHT22;5106;50.926;7.080;2023-04-24T10:37:46;8.40;85.40
10133;DHT22;5106;50.926;7.080;2023-04-24T10:40:17;8.50;85.40
10133;DHT22;5106;50.926;7.080;2023-04-24T10:42:47;8.50;85.40
10133;DHT22;5106;50.926;7.080;2023-04-24T10:45:20;8.50;85.40
10133;DHT22;5106;50.926;7.080;2023-04-24T10:48:02;8.60;85.40
10133;DHT22;5106;50.926;7.080;2023-04-24T10:50:29;8.70;85.20
10133;DHT22;5106;50.926;7.080;2023-04-24T10:53:06;8.70;85.20
10133;DHT22;5106;50.926;7.080;2023-04-24T10:55:43;8.70;85.00
10133;DHT22;5106;50.926;7.080;2023-04-24T10:58:09;8.60;84.70
10133;DHT22;5106;50.926;7.080;2023-04-24T11:00:40;8.60;84.80
10133;DHT22;5106;50.926;7.080;2023-04-24T11:03:12;8.60;84.60
10133;DHT22;5106;50.926;7.080;2023-04-24T11:08:44;8.70;84.90
10133;DHT22;5106;50.926;7.080;2023-04-24T11:11:12;8.80;84.60
10133;DHT22;5106;50.926;7.080;2023-04-24T11:21:38;8.90;84.20
10133;DHT22;5106;50.926;7.080;2023-04-24T11:26:50;8.80;84.10
10133;DHT22;5106;50.926;7.080;2023-04-24T11:29:16;8.80;84.10
10133;DHT22;5106;50.926;7.080;2023-04-24T11:31:45;8.80;84.30
10133;DHT22;5106;50.926;7.080;2023-04-24T11:34:17;8.80;84.40
10133;DHT22;5106;50.926;7.080;2023-04-24T11:36:44;8.70;84.20
10133;DHT22;5106;50.926;7.080;2023-04-24T11:39:11;8.60;84.50
10133;DHT22;5106;50.926;7.080;2023-04-24T11:41:38;8.60;84.50
10133;DHT22;5106;50.926;7.080;2023-04-24T11:44:06;8.60;84.60
10133;DHT22;5106;50.926;7.080;2023-04-24T11:46:32;8.60;84.70
10133;DHT22;5106;50.926;7.080;2023-04-24T11:48:59;8.60;84.80
10133;DHT22;5106;50.926;7.080;2023-04-24T11:51:27;8.60;84.90
10133;DHT22;5106;50.926;7.080;2023-04-24T11:53:54;8.70;85.00
10133;DHT22;5106;50.926;7.080;2023-04-24T11:56:23;8.70;85.20
10133;DHT22;5106;50.926;7.080;2023-04-24T11:58:48;8.90;85.50
10133;DHT22;5106;50.926;7.080;2023-04-24T12:01:14;9.10;85.30
10133;DHT22;5106;50.926;7.080;2023-04-24T12:03:40;9.30;84.90
10133;DHT22;5106;50.926;7.080;2023-04-24T12:06:10;9.50;84.40
10133;DHT22;5106;50.926;7.080;2023-04-24T12:08:37;9.80;84.60
10133;DHT22;5106;50.926;7.080;2023-04-24T12:11:05;9.90;84.30
10133;DHT22;5106;50.926;7.080;2023-04-24T12:13:33;9.90;83.60
10133;DHT22;5106;50.926;7.080;2023-04-24T12:15:59;9.90;82.90
10133;DHT22;5106;50.926;7.080;2023-04-24T12:18:25;10.00;83.20
10133;DHT22;5106;50.926;7.080;2023-04-24T12:20:51;10.00;82.50
10133;DHT22;5106;50.926;7.080;2023-04-24T12:23:33;10.10;82.60
10133;DHT22;5106;50.926;7.080;2023-04-24T12:26:03;10.10;82.50
10133;DHT22;5106;50.926;7.080;2023-04-24T12:28:38;10.10;82.70
10133;DHT22;5106;50.926;7.080;2023-04-24T12:31:04;10.20;82.80
10133;DHT22;5106;50.926;7.080;2023-04-24T12:33:33;10.20;83.00
10133;DHT22;5106;50.926;7.080;2023-04-24T12:36:00;10.20;82.90
10133;DHT22;5106;50.926;7.080;2023-04-24T12:38:27;10.20;83.00
10133;DHT22;5106;50.926;7.080;2023-04-24T12:41:07;10.10;82.60
10133;DHT22;5106;50.926;7.080;2023-04-24T12:43:33;10.10;82.10
10133;DHT22;5106;50.926;7.080;2023-04-24T12:45:58;10.10;82.10
10133;DHT22;5106;50.926;7.080;2023-04-24T12:48:25;10.00;82.20
10133;DHT22;5106;50.926;7.080;2023-04-24T12:50:51;10.00;81.80
10133;DHT22;5106;50.926;7.080;2023-04-24T12:53:17;10.10;81.90
10133;DHT22;5106;50.926;7.080;2023-04-24T12:55:43;10.20;82.20
10133;DHT22;5106;50.926;7.080;2023-04-24T12:58:09;10.30;81.80
10133;DHT22;5106;50.926;7.080;2023-04-24T13:00:35;10.50;81.70
10133;DHT22;5106;50.926;7.080;2023-04-24T13:03:01;10.50;81.80
10133;DHT22;5106;50.926;7.080;2023-04-24T13:05:30;10.50;81.10
10133;DHT22;5106;50.926;7.080;2023-04-24T13:07:57;10.50;80.90
10133;DHT22;5106;50.926;7.080;2023-04-24T13:10:22;10.50;80.10
10133;DHT22;5106;50.926;7.080;2023-04-24T13:12:51;10.40;80.10
10133;DHT22;5106;50.926;7.080;2023-04-24T13:15:16;10.50;80.50
10133;DHT22;5106;50.926;7.080;2023-04-24T13:17:42;10.60;80.60
10133;DHT22;5106;50.926;7.080;2023-04-24T13:20:07;10.70;80.70
10133;DHT22;5106;50.926;7.080;2023-04-24T13:22:33;10.70;79.70
10133;DHT22;5106;50.926;7.080;2023-04-24T13:24:59;10.70;80.20
10133;DHT22;5106;50.926;7.080;2023-04-24T13:27:24;10.70;78.40
10133;DHT22;5106;50.926;7.080;2023-04-24T13:29:50;10.60;78.60
10133;DHT22;5106;50.926;7.080;2023-04-24T13:32:17;10.60;79.00
10133;DHT22;5106;50.926;7.080;2023-04-24T13:34:42;10.60;78.80
10133;DHT22;5106;50.926;7.080;2023-04-24T13:37:08;10.60;78.60
10133;DHT22;5106;50.926;7.080;2023-04-24T13:39:34;10.70;78.30
10133;DHT22;5106;50.926;7.080;2023-04-24T13:42:00;10.80;78.40
10133;DHT22;5106;50.926;7.080;2023-04-24T13:44:26;10.90;76.70
10133;DHT22;5106;50.926;7.080;2023-04-24T13:46:54;11.00;76.80
10133;DHT22;5106;50.926;7.080;2023-04-24T13:49:22;11.40;76.20
10133;DHT22;5106;50.926;7.080;2023-04-24T13:51:50;11.60;75.40
10133;DHT22;5106;50.926;7.080;2023-04-24T13:54:16;11.70;74.00
10133;DHT22;5106;50.926;7.080;2023-04-24T13:56:42;11.70;74.20
10133;DHT22;5106;50.926;7.080;2023-04-24T13:59:07;11.80;73.50
10133;DHT22;5106;50.926;7.080;2023-04-24T14:01:34;11.70;74.00
10133;DHT22;5106;50.926;7.080;2023-04-24T14:03:59;11.70;74.50
10133;DHT22;5106;50.926;7.080;2023-04-24T14:06:25;11.50;73.70
10133;DHT22;5106;50.926;7.080;2023-04-24T14:08:51;11.40;73.60
10133;DHT22;5106;50.926;7.080;2023-04-24T14:11:17;11.30;74.20
10133;DHT22;5106;50.926;7.080;2023-04-24T14:13:44;11.30;74.30
10133;DHT22;5106;50.926;7.080;2023-04-24T14:16:10;11.40;75.20
10133;DHT22;5106;50.926;7.080;2023-04-24T14:18:36;11.60;74.60
10133;DHT22;5106;50.926;7.080;2023-04-24T14:21:02;11.70;74.50
10133;DHT22;5106;50.926;7.080;2023-04-24T14:23:28;11.70;74.40
10133;DHT22;5106;50.926;7.080;2023-04-24T14:25:54;11.60;74.70
10133;DHT22;5106;50.926;7.080;2023-04-24T14:28:20;11.50;75.20
10133;DHT22;5106;50.926;7.080;2023-04-24T14:30:47;11.40;74.10
10133;DHT22;5106;50.926;7.080;2023-04-24T14:33:13;11.50;75.40
10133;DHT22;5106;50.926;7.080;2023-04-24T14:35:39;11.70;74.70
10133;DHT22;5106;50.926;7.080;2023-04-24T14:38:05;11.80;74.10
10133;DHT22;5106;50.926;7.080;2023-04-24T14:40:31;12.00;74.00
10133;DHT22;5106;50.926;7.080;2023-04-24T14:42:57;12.10;74.60
10133;DHT22;5106;50.926;7.080;2023-04-24T14:45:24;12.20;73.50
10133;DHT22;5106;50.926;7.080;2023-04-24T14:47:50;12.40;72.30
10133;DHT22;5106;50.926;7.080;2023-04-24T14:50:15;12.60;69.30
10133;DHT22;5106;50.926;7.080;2023-04-24T14:52:41;12.70;68.80
10133;DHT22;5106;50.926;7.080;2023-04-24T14:55:07;12.60;68.40
10133;DHT22;5106;50.926;7.080;2023-04-24T14:57:33;12.70;68.40
10133;DHT22;5106;50.926;7.080;2023-04-24T14:59:59;12.80;69.00
10133;DHT22;5106;50.926;7.080;2023-04-24T15:02:24;12.80;66.40
10133;DHT22;5106;50.926;7.080;2023-04-24T15:04:50;13.00;67.40
10133;DHT22;5106;50.926;7.080;2023-04-24T15:07:16;12.90;66.70
10133;DHT22;5106;50.926;7.080;2023-04-24T15:09:41;13.00;67.20
10133;DHT22;5106;50.926;7.080;2023-04-24T15:12:08;13.30;68.10
10133;DHT22;5106;50.926;7.080;2023-04-24T15:14:33;13.70;68.10
10133;DHT22;5106;50.926;7.080;2023-04-24T15:16:59;13.90;65.90
10133;DHT22;5106;50.926;7.080;2023-04-24T15:19:25;14.00;67.00
10133;DHT22;5106;50.926;7.080;2023-04-24T15:21:50;14.30;66.00
10133;DHT22;5106;50.926;7.080;2023-04-24T15:24:16;14.60;66.60
10133;DHT22;5106;50.926;7.080;2023-04-24T15:26:41;14.60;64.10
10133;DHT22;5106;50.926;7.080;2023-04-24T15:29:07;14.40;67.10
10133;DHT22;5106;50.926;7.080;2023-04-24T15:31:32;14.10;66.90
10133;DHT22;5106;50.926;7.080;2023-04-24T15:33:58;13.60;67.10
10133;DHT22;5106;50.926;7.080;2023-04-24T15:36:24;13.40;68.80
10133;DHT22;5106;50.926;7.080;2023-04-24T15:38:49;13.30;68.70
10133;DHT22;5106;50.926;7.080;2023-04-24T15:41:15;13.20;68.30
10133;DHT22;5106;50.926;7.080;2023-04-24T15:43:41;13.10;68.50
10133;DHT22;5106;50.926;7.080;2023-04-24T15:46:10;13.10;67.70
10133;DHT22;5106;50.926;7.080;2023-04-24T15:48:42;12.90;67.60
10133;DHT22;5106;50.926;7.080;2023-04-24T15:51:08;12.60;67.90
10133;DHT22;5106;50.926;7.080;2023-04-24T15:53:33;12.50;70.00
10133;DHT22;5106;50.926;7.080;2023-04-24T15:55:59;12.40;69.10
10133;DHT22;5106;50.926;7.080;2023-04-24T15:58:25;12.40;70.30
10133;DHT22;5106;50.926;7.080;2023-04-24T16:00:50;12.30;69.80
10133;DHT22;5106;50.926;7.080;2023-04-24T16:03:18;12.30;70.70
10133;DHT22;5106;50.926;7.080;2023-04-24T16:05:44;12.30;69.60
10133;DHT22;5106;50.926;7.080;2023-04-24T16:08:10;12.20;69.60